createdAt,value
2022-08-20T00:01:06.546Z,73.82
2022-08-20T00:03:36.736Z,72.49
2022-08-20T00:06:08.242Z,73.75
2022-08-20T00:08:44.657Z,73.39
2022-08-20T00:11:14.421Z,73.79
2022-08-20T00:13:52.111Z,73.05
2022-08-20T00:16:24.413Z,73.38
2022-08-20T00:18:53.009Z,72.98
2022-08-20T00:21:25.537Z,73.27
2022-08-20T00:23:54.721Z,73.36
2022-08-20T00:26:25.700Z,73.32
2022-08-20T00:29:00.225Z,73.28
2022-08-20T00:31:29.928Z,72.74
2022-08-20T00:33:58.732Z,73.58
2022-08-20T00:36:32.699Z,73.43
2022-08-20T00:39:01.755Z,73.64
2022-08-20T00:41:32.898Z,72.85
2022-08-20T00:44:07.402Z,73.51
2022-08-20T00:46:39.222Z,74.70
2022-08-20T00:49:09.322Z,74.36
2022-08-20T00:51:48.138Z,73.88
2022-08-20T00:54:18.841Z,72.88
2022-08-20T00:56:50.748Z,72.27
2022-08-20T00:59:27.734Z,73.30
2022-08-20T01:01:57.627Z,73.20
2022-08-20T01:04:27.169Z,72.46
2022-08-20T01:07:02.012Z,74.17
2022-08-20T01:09:49.973Z,72.01
2022-08-20T01:14:54.206Z,71.21
2022-08-20T01:17:24.306Z,72.05
2022-08-20T01:19:54.549Z,74.21
2022-08-20T01:22:43.060Z,73.42
2022-08-20T01:25:14.327Z,74.14
2022-08-20T01:27:44.507Z,74.31
2022-08-20T01:30:13.991Z,75.90
2022-08-20T01:32:42.600Z,74.72
2022-08-20T01:35:13.613Z,75.38
2022-08-20T01:37:41.950Z,76.75
2022-08-20T01:40:15.852Z,77.64
2022-08-20T01:43:09.003Z,76.49
2022-08-20T01:45:42.253Z,76.77
2022-08-20T01:48:11.725Z,77.02
2022-08-20T01:50:47.358Z,76.48
2022-08-20T01:53:24.405Z,77.83
2022-08-20T01:55:53.090Z,77.37
2022-08-20T01:58:25.288Z,76.28
2022-08-20T02:00:53.906Z,76.32
2022-08-20T02:03:25.721Z,75.74
2022-08-20T02:05:54.470Z,75.02
2022-08-20T02:08:29.521Z,74.37
2022-08-20T02:10:58.150Z,75.18
2022-08-20T02:13:30.242Z,75.55
2022-08-20T02:15:58.873Z,73.32
2022-08-20T02:18:29.922Z,74.33
2022-08-20T02:20:58.557Z,74.93
2022-08-20T02:23:31.426Z,74.45
2022-08-20T02:26:00.191Z,74.57
2022-08-20T02:28:35.830Z,73.40
2022-08-20T02:31:08.557Z,73.15
2022-08-20T02:33:39.136Z,72.72
2022-08-20T02:36:08.089Z,72.70
2022-08-20T02:38:39.005Z,72.78
2022-08-20T02:41:07.606Z,72.42
2022-08-20T02:43:39.658Z,72.90
2022-08-20T02:46:10.238Z,71.37
2022-08-20T02:48:40.715Z,71.70
2022-08-20T02:51:09.628Z,72.01
2022-08-20T02:53:43.883Z,72.04
2022-08-20T02:56:12.875Z,71.83
2022-08-20T02:58:42.914Z,71.93
2022-08-20T03:01:12.832Z,71.61
2022-08-20T03:03:45.418Z,71.85
2022-08-20T03:06:16.613Z,71.92
2022-08-20T03:08:49.438Z,71.79
2022-08-20T03:11:17.877Z,71.32
2022-08-20T03:13:49.605Z,72.16
2022-08-20T03:16:17.954Z,72.83
2022-08-20T03:18:47.956Z,73.81
2022-08-20T03:21:20.569Z,70.93
2022-08-20T03:23:49.362Z,70.68
2022-08-20T03:26:17.765Z,71.53
2022-08-20T03:28:49.989Z,72.02
2022-08-20T03:31:20.507Z,73.29
2022-08-20T03:33:55.068Z,73.55
2022-08-20T03:36:28.805Z,72.71
2022-08-20T03:38:59.168Z,74.32
2022-08-20T03:41:29.325Z,74.56
2022-08-20T03:43:57.982Z,76.44
2022-08-20T03:46:27.687Z,73.87
2022-08-20T03:48:59.815Z,75.32
2022-08-20T03:51:29.240Z,75.80
2022-08-20T03:54:00.579Z,75.33
2022-08-20T03:56:29.400Z,76.07
2022-08-20T03:58:58.794Z,76.16
2022-08-20T04:01:45.999Z,75.64
2022-08-20T04:04:15.308Z,76.58
2022-08-20T04:06:50.507Z,75.48
2022-08-20T04:12:02.762Z,74.32
2022-08-20T04:14:33.853Z,73.62
2022-08-20T04:17:10.009Z,74.03
2022-08-20T04:19:38.899Z,76.14
2022-08-20T04:22:08.400Z,75.57
2022-08-20T04:24:37.287Z,75.71
2022-08-20T04:27:09.774Z,74.57
2022-08-20T04:29:38.293Z,74.81
2022-08-20T04:32:15.774Z,74.47
2022-08-20T04:34:47.332Z,75.40
2022-08-20T04:37:23.766Z,74.04
2022-08-20T04:40:06.413Z,71.79
2022-08-20T04:42:37.733Z,72.15
2022-08-20T04:45:08.726Z,73.39
2022-08-20T04:47:41.765Z,73.17
2022-08-20T04:50:10.707Z,71.88
2022-08-20T04:52:42.579Z,71.62
2022-08-20T04:55:10.993Z,73.05
2022-08-20T04:57:43.206Z,73.76
2022-08-20T05:00:13.014Z,72.97
2022-08-20T05:02:45.245Z,73.10
2022-08-20T05:05:14.470Z,72.69
2022-08-20T05:07:46.644Z,72.84
2022-08-20T05:10:15.762Z,72.75
2022-08-20T05:12:56.518Z,73.19
2022-08-20T05:15:30.006Z,71.62
2022-08-20T05:18:02.579Z,71.76
2022-08-20T05:20:32.168Z,70.09
2022-08-20T05:23:01.078Z,70.02
2022-08-20T05:25:33.414Z,70.80
2022-08-20T05:28:02.669Z,69.86
2022-08-20T05:30:33.493Z,70.56
2022-08-20T05:33:04.698Z,70.70
2022-08-20T05:35:35.884Z,69.27
2022-08-20T05:38:04.479Z,70.46
2022-08-20T05:40:37.978Z,70.38
2022-08-20T05:43:06.699Z,69.07
2022-08-20T05:45:37.940Z,67.36
2022-08-20T05:48:10.754Z,69.14
2022-08-20T05:50:43.103Z,68.59
2022-08-20T05:53:11.881Z,67.93
2022-08-20T05:55:40.246Z,68.24
2022-08-20T05:58:09.597Z,68.89
2022-08-20T06:00:40.198Z,68.79
2022-08-20T06:03:27.666Z,69.31
2022-08-20T06:05:56.027Z,69.68
2022-08-20T06:08:27.435Z,69.05
2022-08-20T06:10:55.746Z,68.44
2022-08-20T06:13:25.044Z,67.38
2022-08-20T06:15:53.659Z,69.34
2022-08-20T06:18:28.222Z,69.04
2022-08-20T06:20:57.608Z,68.28
2022-08-20T06:23:28.392Z,69.43
2022-08-20T06:26:28.908Z,70.50
2022-08-20T06:29:01.809Z,69.46
2022-08-20T06:31:30.699Z,70.48
2022-08-20T06:34:08.536Z,70.88
2022-08-20T06:36:37.753Z,68.84
2022-08-20T06:39:06.145Z,67.21
2022-08-20T06:41:37.115Z,67.34
2022-08-20T06:44:07.503Z,69.51
2022-08-20T06:46:40.175Z,70.81
2022-08-20T06:49:10.164Z,71.98
2022-08-20T06:51:41.566Z,71.73
2022-08-20T06:54:10.247Z,72.29
2022-08-20T06:56:44.921Z,72.18
2022-08-20T06:59:13.563Z,71.62
2022-08-20T07:01:49.349Z,69.41
2022-08-20T07:04:26.694Z,70.55
2022-08-20T07:06:55.039Z,68.07
2022-08-20T07:09:30.513Z,69.07
2022-08-20T07:11:58.895Z,69.37
2022-08-20T07:14:29.433Z,69.60
2022-08-20T07:16:57.887Z,69.45
2022-08-20T07:19:35.318Z,70.28
2022-08-20T07:22:05.043Z,70.67
2022-08-20T07:24:36.641Z,71.07
2022-08-20T07:27:09.657Z,71.83
2022-08-20T07:29:56.014Z,72.76
2022-08-20T07:32:39.956Z,73.80
2022-08-20T07:35:23.029Z,73.29
2022-08-20T07:37:54.571Z,73.52
2022-08-20T07:40:26.340Z,73.34
2022-08-20T07:42:55.536Z,72.76
2022-08-20T07:45:24.720Z,73.04
2022-08-20T07:47:53.635Z,72.87
2022-08-20T07:50:27.676Z,73.38
2022-08-20T07:52:56.125Z,72.74
2022-08-20T07:55:31.965Z,72.37
2022-08-20T07:58:04.019Z,71.39
2022-08-20T08:00:36.762Z,71.50
2022-08-20T08:03:12.375Z,72.43
2022-08-20T08:05:42.408Z,71.26
2022-08-20T08:08:12.426Z,69.89
2022-08-20T08:10:41.299Z,69.12
2022-08-20T08:13:14.833Z,68.13
2022-08-20T08:15:45.039Z,69.89
2022-08-20T08:18:16.532Z,69.97
2022-08-20T08:20:47.107Z,70.71
2022-08-20T08:23:24.925Z,71.38
2022-08-20T08:26:07.067Z,71.84
2022-08-20T08:28:48.637Z,72.37
2022-08-20T08:31:19.932Z,72.40
2022-08-20T08:33:50.482Z,73.16
2022-08-20T08:36:25.031Z,74.09
2022-08-20T08:38:54.633Z,75.48
2022-08-20T08:41:32.053Z,76.39
2022-08-20T08:44:08.521Z,74.12
2022-08-20T08:46:38.717Z,72.76
2022-08-20T08:49:10.887Z,73.15
2022-08-20T08:51:41.975Z,74.19
2022-08-20T08:54:12.045Z,78.00
2022-08-20T08:56:40.663Z,78.75
2022-08-20T08:59:10.530Z,76.68
2022-08-20T09:01:55.465Z,76.16
2022-08-20T09:04:25.891Z,77.66
2022-08-20T09:06:58.790Z,77.21
2022-08-20T09:09:28.167Z,77.25
2022-08-20T09:12:04.033Z,76.82
2022-08-20T09:14:33.837Z,78.60
2022-08-20T09:17:02.902Z,81.82
2022-08-20T09:19:31.274Z,80.79
2022-08-20T09:22:03.690Z,82.11
2022-08-20T09:24:32.040Z,81.68
2022-08-20T09:27:01.684Z,82.09
2022-08-20T09:29:30.245Z,81.90
2022-08-20T09:32:05.031Z,82.34
2022-08-20T09:34:36.510Z,80.84
2022-08-20T09:37:07.680Z,81.53
2022-08-20T09:39:36.497Z,80.85
2022-08-20T09:42:09.341Z,82.27
2022-08-20T09:44:38.145Z,81.13
2022-08-20T09:47:08.638Z,81.15
2022-08-20T09:49:37.395Z,81.91
2022-08-20T09:52:21.384Z,79.16
2022-08-20T09:54:52.914Z,78.22
2022-08-20T09:57:21.639Z,78.88
2022-08-20T09:59:52.983Z,82.13
2022-08-20T10:02:21.748Z,82.15
2022-08-20T10:04:51.841Z,81.68
2022-08-20T10:07:22.164Z,82.08
2022-08-20T10:09:51.311Z,79.82
2022-08-20T10:12:22.328Z,80.04
2022-08-20T10:14:57.022Z,82.05
2022-08-20T10:17:33.487Z,81.34
2022-08-20T10:20:05.832Z,84.32
2022-08-20T10:22:42.153Z,81.74
2022-08-20T10:25:10.907Z,82.03
2022-08-20T10:27:41.921Z,80.19
2022-08-20T10:30:11.165Z,80.84
2022-08-20T10:32:44.269Z,81.95
2022-08-20T10:35:12.940Z,80.36
2022-08-20T10:37:47.372Z,83.19
2022-08-20T10:40:16.795Z,80.76
2022-08-20T10:42:48.545Z,75.57
2022-08-20T10:45:17.326Z,78.67
2022-08-20T10:47:50.741Z,77.64
2022-08-20T10:50:20.177Z,74.64
2022-08-20T10:52:50.226Z,69.86
2022-08-20T10:55:20.088Z,74.21
2022-08-20T10:57:50.213Z,74.30
2022-08-20T11:00:19.906Z,73.94
2022-08-20T11:02:49.716Z,72.76
2022-08-20T11:05:19.104Z,68.44
2022-08-20T11:07:56.872Z,69.38
2022-08-20T11:10:30.526Z,68.90
2022-08-20T11:13:02.313Z,69.49
2022-08-20T11:15:38.622Z,69.75
2022-08-20T11:18:06.954Z,67.44
2022-08-20T11:20:39.930Z,65.24
2022-08-20T11:23:08.295Z,63.89
2022-08-20T11:25:45.881Z,65.59
2022-08-20T11:28:14.205Z,64.84
2022-08-20T11:30:46.355Z,63.96
2022-08-20T11:33:14.695Z,65.82
2022-08-20T11:35:48.470Z,64.09
2022-08-20T11:38:18.947Z,69.68
2022-08-20T11:40:49.286Z,68.58
2022-08-20T11:43:18.410Z,68.71
2022-08-20T11:45:54.053Z,68.11
2022-08-20T11:48:26.726Z,66.13
2022-08-20T11:50:55.168Z,66.19
2022-08-20T11:53:26.678Z,65.11
2022-08-20T11:55:57.035Z,65.69
2022-08-20T11:58:28.364Z,62.40
2022-08-20T12:00:57.729Z,61.54
2022-08-20T12:03:35.776Z,59.81
2022-08-20T12:06:04.114Z,62.73
2022-08-20T12:08:36.345Z,58.33
2022-08-20T12:11:06.123Z,62.01
2022-08-20T12:13:48.542Z,58.85
2022-08-20T12:16:18.505Z,62.57
2022-08-20T12:18:47.251Z,61.06
2022-08-20T12:21:20.386Z,60.29
2022-08-20T12:23:49.160Z,58.95
2022-08-20T12:26:23.312Z,58.44
2022-08-20T12:29:02.767Z,59.31
2022-08-20T12:31:33.522Z,57.91
2022-08-20T12:34:03.144Z,60.01
2022-08-20T12:36:31.481Z,62.44
2022-08-20T12:39:04.258Z,60.65
2022-08-20T12:41:32.899Z,60.38
2022-08-20T12:44:13.249Z,59.97
2022-08-20T12:46:43.157Z,59.67
2022-08-20T12:49:12.697Z,61.19
2022-08-20T12:51:41.027Z,60.18
2022-08-20T12:54:09.959Z,60.46
2022-08-20T12:56:38.332Z,61.58
2022-08-20T12:59:11.340Z,61.74
2022-08-20T13:01:39.991Z,62.05
2022-08-20T13:04:12.730Z,62.36
2022-08-20T13:06:41.464Z,63.15
2022-08-20T13:09:10.469Z,64.13
2022-08-20T13:11:39.448Z,63.37
2022-08-20T13:14:13.152Z,61.97
2022-08-20T13:16:44.208Z,61.22
2022-08-20T13:19:16.553Z,62.53
2022-08-20T13:21:45.288Z,61.60
2022-08-20T13:24:26.950Z,62.74
2022-08-20T13:26:59.627Z,60.99
2022-08-20T13:29:29.629Z,60.26
2022-08-20T13:32:04.326Z,60.03
2022-08-20T13:34:32.973Z,58.57
2022-08-20T13:37:02.180Z,59.05
2022-08-20T13:39:30.512Z,57.39
2022-08-20T13:42:03.377Z,59.99
2022-08-20T13:44:33.420Z,57.93
2022-08-20T13:47:06.938Z,58.33
2022-08-20T13:49:35.295Z,57.68
2022-08-20T13:52:10.319Z,58.52
2022-08-20T13:54:39.157Z,59.62
2022-08-20T13:57:16.911Z,58.14
2022-08-20T13:59:51.313Z,59.34
2022-08-20T14:02:19.968Z,58.45
2022-08-20T14:04:54.018Z,57.74
2022-08-20T14:07:23.311Z,57.25
2022-08-20T14:09:57.012Z,57.53
2022-08-20T14:12:25.607Z,59.97
2022-08-20T14:14:58.076Z,58.43
2022-08-20T14:17:27.344Z,59.14
2022-08-20T14:20:00.890Z,59.86
2022-08-20T14:22:30.018Z,60.21
2022-08-20T14:25:03.956Z,61.20
2022-08-20T14:27:35.307Z,60.23
2022-08-20T14:30:09.885Z,60.28
2022-08-20T14:32:42.205Z,59.81
2022-08-20T14:35:10.916Z,59.37
2022-08-20T14:37:40.534Z,60.04
2022-08-20T14:40:10.783Z,59.05
2022-08-20T14:42:40.911Z,58.69
2022-08-20T14:45:13.525Z,60.48
2022-08-20T14:47:46.024Z,59.27
2022-08-20T14:50:15.410Z,59.18
2022-08-20T14:52:48.629Z,59.41
2022-08-20T14:55:17.437Z,57.72
2022-08-20T14:57:49.951Z,58.08
2022-08-20T15:00:20.842Z,58.98
2022-08-20T15:02:50.671Z,59.20
2022-08-20T15:05:19.071Z,59.24
2022-08-20T15:07:54.029Z,59.80
2022-08-20T15:10:23.871Z,58.06
2022-08-20T15:12:52.904Z,57.98
2022-08-20T15:15:22.692Z,59.32
2022-08-20T15:17:56.441Z,58.13
2022-08-20T15:20:27.640Z,59.32
2022-08-20T15:23:05.336Z,59.11
2022-08-20T15:25:42.780Z,58.18
2022-08-20T15:28:11.416Z,59.18
2022-08-20T15:30:42.272Z,61.15
2022-08-20T15:33:11.189Z,58.94
2022-08-20T15:35:42.557Z,58.21
2022-08-20T15:38:11.173Z,60.08
2022-08-20T15:40:45.416Z,61.70
2022-08-20T15:43:14.013Z,62.02
2022-08-20T15:45:46.244Z,62.62
2022-08-20T15:48:15.440Z,61.02
2022-08-20T15:51:10.116Z,61.11
2022-08-20T15:53:41.026Z,61.98
2022-08-20T15:56:11.865Z,62.77
2022-08-20T15:58:41.227Z,62.47
2022-08-20T16:01:24.714Z,61.55
2022-08-20T16:04:03.980Z,61.24
2022-08-20T16:06:33.804Z,61.35
2022-08-20T16:09:05.256Z,60.39
2022-08-20T16:11:36.837Z,60.13
2022-08-20T16:14:09.377Z,59.98
2022-08-20T16:16:43.496Z,60.81
2022-08-20T16:19:12.352Z,61.23
2022-08-20T16:21:44.379Z,61.75
2022-08-20T16:24:13.881Z,62.08
2022-08-20T16:26:47.522Z,62.20
2022-08-20T16:29:20.146Z,62.16
2022-08-20T16:31:51.156Z,61.59
2022-08-20T16:34:33.008Z,61.94
2022-08-20T16:37:07.475Z,62.50
2022-08-20T16:39:38.396Z,62.58
2022-08-20T16:42:08.715Z,63.25
2022-08-20T16:44:38.527Z,63.17
2022-08-20T16:47:14.032Z,63.45
2022-08-20T16:49:46.170Z,63.25
2022-08-20T16:52:20.750Z,63.11
2022-08-20T16:54:53.342Z,63.16
2022-08-20T16:57:21.689Z,63.60
2022-08-20T17:00:01.021Z,63.52
2022-08-20T17:02:33.487Z,63.32
2022-08-20T17:05:06.770Z,62.56
2022-08-20T17:07:43.563Z,62.22
2022-08-20T17:10:20.766Z,62.05
2022-08-20T17:12:53.216Z,62.16
2022-08-20T17:15:23.597Z,62.28
2022-08-20T17:17:55.741Z,62.62
2022-08-20T17:20:25.575Z,63.39
2022-08-20T17:23:07.754Z,64.24
2022-08-20T17:25:38.240Z,63.33
2022-08-20T17:28:14.029Z,63.93
2022-08-20T17:30:49.530Z,63.33
2022-08-20T17:33:32.774Z,62.84
2022-08-20T17:36:02.131Z,63.71
2022-08-20T17:38:38.673Z,64.03
2022-08-20T17:43:44.686Z,64.60
2022-08-20T17:46:18.685Z,65.09
2022-08-20T17:48:49.086Z,65.30
2022-08-20T17:51:18.484Z,65.36
2022-08-20T17:53:48.075Z,65.19
2022-08-20T17:56:20.359Z,65.58
2022-08-20T17:58:54.381Z,65.92
2022-08-20T18:01:24.203Z,66.19
2022-08-20T18:06:39.071Z,66.92
2022-08-20T18:09:16.074Z,66.74
2022-08-20T18:11:47.760Z,66.87
2022-08-20T18:14:20.607Z,66.91
2022-08-20T18:16:51.304Z,66.64
2022-08-20T18:19:25.996Z,66.77
2022-08-20T18:22:01.949Z,66.89
2022-08-20T18:24:31.249Z,67.33
2022-08-20T18:27:02.816Z,66.72
2022-08-20T18:29:44.602Z,66.81
2022-08-20T18:32:26.488Z,66.92
2022-08-20T18:35:02.164Z,67.12
2022-08-20T18:37:32.290Z,67.58
2022-08-20T18:40:08.577Z,68.02
2022-08-20T18:42:39.287Z,68.55
2022-08-20T18:45:09.787Z,68.25
2022-08-20T18:47:46.832Z,67.61
2022-08-20T18:50:26.945Z,66.93
2022-08-20T18:53:08.543Z,67.12
2022-08-20T18:55:40.947Z,68.31
2022-08-20T18:58:10.218Z,67.55
2022-08-20T19:00:41.183Z,68.09
2022-08-20T19:03:17.661Z,67.31
2022-08-20T19:06:06.143Z,68.60
2022-08-20T19:08:44.489Z,68.39
2022-08-20T19:11:28.118Z,67.80
2022-08-20T19:14:10.556Z,68.31
2022-08-20T19:16:45.476Z,69.01
2022-08-20T19:19:14.688Z,68.58
2022-08-20T19:21:44.645Z,69.01
2022-08-20T19:24:13.305Z,70.38
2022-08-20T19:26:43.635Z,70.77
2022-08-20T19:29:14.982Z,72.02
2022-08-20T19:31:47.087Z,71.28
2022-08-20T19:34:21.670Z,70.73
2022-08-20T19:36:56.586Z,70.04
2022-08-20T19:39:28.699Z,70.76
2022-08-20T19:41:59.978Z,69.52
2022-08-20T19:44:33.322Z,70.16
2022-08-20T19:47:02.055Z,70.62
2022-08-20T19:49:34.430Z,69.83
2022-08-20T19:52:15.358Z,70.27
2022-08-20T19:55:00.108Z,70.13
2022-08-20T19:57:32.006Z,70.65
2022-08-20T20:00:08.431Z,69.40
2022-08-20T20:02:45.156Z,69.62
2022-08-20T20:05:13.564Z,69.60
2022-08-20T20:07:44.963Z,71.18
2022-08-20T20:10:29.447Z,71.60
2022-08-20T20:13:09.621Z,72.55
2022-08-20T20:15:38.439Z,71.24
2022-08-20T20:18:10.977Z,73.93
2022-08-20T20:20:55.835Z,73.20
2022-08-20T20:23:38.793Z,71.63
2022-08-20T20:26:17.563Z,71.12
2022-08-20T20:28:46.685Z,70.35
2022-08-20T20:31:20.643Z,70.63
2022-08-20T20:33:52.864Z,71.28
2022-08-20T20:36:31.755Z,71.42
2022-08-20T20:39:04.679Z,72.11
2022-08-20T20:41:33.189Z,72.50
2022-08-20T20:44:03.521Z,73.88
2022-08-20T20:46:32.340Z,74.58
2022-08-20T20:49:12.825Z,75.59
2022-08-20T20:51:47.854Z,75.44
2022-08-20T20:54:30.054Z,75.15
2022-08-20T20:56:59.842Z,75.56
2022-08-20T20:59:32.380Z,76.53
2022-08-20T21:02:01.384Z,75.74
2022-08-20T21:04:30.620Z,75.98
2022-08-20T21:06:59.526Z,76.97
2022-08-20T21:09:32.489Z,76.89
2022-08-20T21:12:00.823Z,76.11
2022-08-20T21:14:31.343Z,76.45
2022-08-20T21:17:02.731Z,76.41
2022-08-20T21:19:44.889Z,76.16
2022-08-20T21:22:16.484Z,76.70
2022-08-20T21:24:48.555Z,77.08
2022-08-20T21:27:23.388Z,76.54
2022-08-20T21:29:52.019Z,77.59
2022-08-20T21:32:21.201Z,76.82
2022-08-20T21:34:49.560Z,76.95
2022-08-20T21:37:23.211Z,76.51
2022-08-20T21:39:55.869Z,76.64
2022-08-20T21:42:29.652Z,76.30
2022-08-20T21:45:05.693Z,75.78
2022-08-20T21:47:34.337Z,74.78
2022-08-20T21:50:10.406Z,75.41
2022-08-20T21:52:43.943Z,77.14
2022-08-20T21:55:39.279Z,75.61
2022-08-20T21:58:15.998Z,75.20
2022-08-20T22:00:51.809Z,76.43
2022-08-20T22:03:23.827Z,75.83
2022-08-20T22:06:01.733Z,75.65
2022-08-20T22:08:30.397Z,75.70
2022-08-20T22:11:00.561Z,76.42
2022-08-20T22:13:31.476Z,77.42
2022-08-20T22:16:03.574Z,77.30
2022-08-20T22:18:31.965Z,76.37
2022-08-20T22:21:03.761Z,76.36
2022-08-20T22:23:32.123Z,76.53
2022-08-20T22:26:04.827Z,75.99
2022-08-20T22:28:33.296Z,76.82
2022-08-20T22:31:05.466Z,75.87
2022-08-20T22:33:34.066Z,76.23
2022-08-20T22:36:06.001Z,76.04
2022-08-20T22:38:34.462Z,76.63
2022-08-20T22:41:09.832Z,75.02
2022-08-20T22:43:44.995Z,76.78
2022-08-20T22:46:26.417Z,76.32
2022-08-20T22:48:59.346Z,75.63
2022-08-20T22:51:30.399Z,75.71
2022-08-20T22:53:59.838Z,76.36
2022-08-20T22:56:33.643Z,76.11
2022-08-20T22:59:03.340Z,76.26
2022-08-20T23:01:38.019Z,75.07
2022-08-20T23:04:08.004Z,75.77
2022-08-20T23:06:40.938Z,75.14
2022-08-20T23:09:09.337Z,74.94
2022-08-20T23:11:48.285Z,76.47
2022-08-20T23:14:22.541Z,75.39
2022-08-20T23:17:04.148Z,75.91
2022-08-20T23:19:32.865Z,75.20
2022-08-20T23:22:03.827Z,75.91
2022-08-20T23:24:32.239Z,77.19
2022-08-20T23:27:07.085Z,76.34
2022-08-20T23:29:35.445Z,75.86
2022-08-20T23:32:08.118Z,73.44
2022-08-20T23:34:36.491Z,75.26
2022-08-20T23:37:09.072Z,74.74
2022-08-20T23:39:37.593Z,74.55
2022-08-20T23:42:14.028Z,73.67
2022-08-20T23:44:42.417Z,73.90
2022-08-20T23:47:12.601Z,74.73
2022-08-20T23:49:40.990Z,74.48
2022-08-20T23:52:15.634Z,74.89
2022-08-20T23:54:46.329Z,73.13
2022-08-20T23:57:16.198Z,73.39
2022-08-20T23:59:52.856Z,74.21
